Time;durP1;ratioP1;P1;durP2;ratioP2;P2;SDS_P1;SDS_P2;PMS_P1;PMS_P2;Temp;Humidity;BMP_temperature;BMP_pressure;BME280_temperature;BME280_humidity;BME280_pressure;Samples;Min_cycle;Max_cycle;Signal;HPM_P1;HPM_P2
2021/10/10 00:01:51;;;;;;;82.90;46.90;;;;;;;;;;4989473;28;20018;-70
2021/10/10 00:04:17;;;;;;;83.30;45.70;;;;;;;;;;4991342;28;20077;-69
2021/10/10 00:06:43;;;;;;;84.60;48.63;;;;;;;;;;4993822;28;20042;-70
2021/10/10 00:09:09;;;;;;;83.18;47.10;;;;;;;;;;4992293;28;20051;-69
2021/10/10 00:11:35;;;;;;;84.53;51.20;;;;;;;;;;4993512;28;20026;-69
2021/10/10 00:14:01;;;;;;;87.32;47.85;;;;;;;;;;4992572;28;20088;-69
2021/10/10 00:16:27;;;;;;;92.10;50.30;;;;;;;;;;4992161;28;20033;-69
2021/10/10 00:18:54;;;;;;;89.25;48.45;;;;;;;;;;4991869;28;20499;-69
2021/10/10 00:21:20;;;;;;;92.22;47.80;;;;;;;;;;4994404;28;20018;-69
2021/10/10 00:23:46;;;;;;;89.30;50.53;;;;;;;;;;4990553;28;20085;-69
2021/10/10 00:26:12;;;;;;;96.70;50.53;;;;;;;;;;4994148;28;20019;-69
2021/10/10 00:28:38;;;;;;;83.03;47.35;;;;;;;;;;4993749;28;20034;-69
2021/10/10 00:31:04;;;;;;;88.38;48.03;;;;;;;;;;4992800;28;20096;-69
2021/10/10 00:33:30;;;;;;;82.68;47.42;;;;;;;;;;4992238;28;20034;-69
2021/10/10 00:35:56;;;;;;;82.78;48.17;;;;;;;;;;4992842;28;20054;-69
2021/10/10 00:38:22;;;;;;;85.80;46.92;;;;;;;;;;4992708;28;20026;-69
2021/10/10 00:40:48;;;;;;;84.88;47.35;;;;;;;;;;4992750;28;20426;-69
2021/10/10 00:43:14;;;;;;;85.65;48.47;;;;;;;;;;4994547;28;20029;-69
2021/10/10 00:45:46;;;;;;;92.68;48.97;;;;;;;;;;4992233;28;20019;-69
2021/10/10 00:48:13;;;;;;;88.22;47.70;;;;;;;;;;4989766;28;20411;-69
2021/10/10 00:50:39;;;;;;;89.13;50.10;;;;;;;;;;4998575;28;20057;-69
2021/10/10 00:53:05;;;;;;;82.38;45.95;;;;;;;;;;4994100;28;20089;-69
2021/10/10 00:55:31;;;;;;;90.07;48.40;;;;;;;;;;4992791;28;20077;-69
2021/10/10 00:57:58;;;;;;;82.00;45.20;;;;;;;;;;4993435;28;20034;-69
2021/10/10 01:00:24;;;;;;;87.20;47.92;;;;;;;;;;4992606;28;20034;-69
2021/10/10 01:02:56;;;;;;;85.03;46.63;;;;;;;;;;4992486;28;20518;-69
2021/10/10 01:05:22;;;;;;;;;;;;;;;;;;4990119;28;20053;-69
2021/10/10 01:07:48;;;;;;;84.53;46.00;;;;;;;;;;4992185;28;19984;-69
2021/10/10 01:10:15;;;;;;;90.18;46.20;;;;;;;;;;4992062;28;20049;-69
2021/10/10 01:12:43;;;;;;;81.70;45.50;;;;;;;;;;4991807;28;20439;-69
2021/10/10 01:15:09;;;;;;;84.05;45.25;;;;;;;;;;4991795;28;20579;-69
2021/10/10 01:17:35;;;;;;;86.00;46.65;;;;;;;;;;4991866;28;20040;-69
2021/10/10 01:20:02;;;;;;;84.60;46.65;;;;;;;;;;4994083;28;20045;-69
2021/10/10 01:22:29;;;;;;;83.55;46.20;;;;;;;;;;4997831;28;20026;-69
2021/10/10 01:24:55;;;;;;;82.45;46.28;;;;;;;;;;4993475;28;20034;-69
2021/10/10 01:27:21;;;;;;;87.15;45.60;;;;;;;;;;4990844;28;20026;-69
2021/10/10 01:29:47;;;;;;;86.20;46.00;;;;;;;;;;4991541;28;20042;-69
2021/10/10 01:32:13;;;;;;;80.90;44.40;;;;;;;;;;4993368;28;20042;-69
2021/10/10 01:34:46;;;;;;;76.82;43.95;;;;;;;;;;4986347;28;20030;-69
2021/10/10 01:37:13;;;;;;;81.53;46.20;;;;;;;;;;4991734;28;20029;-69
2021/10/10 01:39:39;;;;;;;89.13;46.97;;;;;;;;;;4988517;28;20395;-69
2021/10/10 01:42:05;;;;;;;82.60;44.83;;;;;;;;;;4994613;28;20101;-69
2021/10/10 01:44:31;;;;;;;89.78;44.75;;;;;;;;;;4993053;28;20022;-69
2021/10/10 01:46:58;;;;;;;77.85;43.17;;;;;;;;;;4992430;28;20027;-69
2021/10/10 01:49:24;;;;;;;80.85;45.10;;;;;;;;;;4990593;28;20069;-69
2021/10/10 01:51:50;;;;;;;80.35;43.95;;;;;;;;;;4992411;28;20026;-69
2021/10/10 01:54:16;;;;;;;84.13;45.85;;;;;;;;;;4994255;28;20038;-69
2021/10/10 01:56:42;;;;;;;82.50;44.47;;;;;;;;;;4991388;28;20034;-68
2021/10/10 01:59:09;;;;;;;80.93;44.22;;;;;;;;;;4991752;28;20030;-69
2021/10/10 02:01:35;;;;;;;76.80;44.35;;;;;;;;;;4987639;28;20026;-69
2021/10/10 02:04:01;;;;;;;87.70;47.33;;;;;;;;;;4991695;28;20077;-69
2021/10/10 02:06:27;;;;;;;79.93;43.92;;;;;;;;;;4989995;28;20050;-69
2021/10/10 02:08:53;;;;;;;76.05;42.58;;;;;;;;;;4991679;28;20045;-69
2021/10/10 02:11:19;;;;;;;79.55;40.95;;;;;;;;;;4991270;28;20498;-69
2021/10/10 02:13:45;;;;;;;69.15;41.13;;;;;;;;;;4991619;28;20552;-69
2021/10/10 02:16:11;;;;;;;76.82;42.20;;;;;;;;;;4991643;28;20036;-69
2021/10/10 02:18:37;;;;;;;79.35;41.83;;;;;;;;;;4989862;28;20041;-69
2021/10/10 02:21:04;;;;;;;75.93;40.70;;;;;;;;;;4991337;28;20026;-69
2021/10/10 02:23:30;;;;;;;73.80;41.45;;;;;;;;;;4992344;28;20387;-69
2021/10/10 02:25:56;;;;;;;86.13;43.17;;;;;;;;;;4989751;28;20068;-69
2021/10/10 02:28:22;;;;;;;71.43;40.65;;;;;;;;;;4992081;28;20026;-69
2021/10/10 02:30:49;;;;;;;73.65;41.20;;;;;;;;;;4992234;28;20026;-68
2021/10/10 02:33:15;;;;;;;81.13;42.00;;;;;;;;;;4992277;28;20034;-69
2021/10/10 02:35:41;;;;;;;80.22;41.80;;;;;;;;;;4988280;28;20033;-69
2021/10/10 02:38:08;;;;;;;77.95;42.13;;;;;;;;;;4991461;28;20022;-69
2021/10/10 02:40:34;;;;;;;78.63;40.30;;;;;;;;;;4991465;28;20042;-68
2021/10/10 02:43:00;;;;;;;77.22;42.10;;;;;;;;;;4990674;28;20081;-69
2021/10/10 02:45:26;;;;;;;76.88;43.72;;;;;;;;;;4990181;28;20034;-68
2021/10/10 02:47:52;;;;;;;79.43;43.08;;;;;;;;;;4991417;28;20105;-69
2021/10/10 02:50:18;;;;;;;79.25;43.42;;;;;;;;;;4989128;28;20029;-69
2021/10/10 02:52:44;;;;;;;78.68;40.72;;;;;;;;;;4998128;28;20401;-68
2021/10/10 02:55:10;;;;;;;82.50;43.28;;;;;;;;;;4992806;28;20104;-68
2021/10/10 02:57:36;;;;;;;88.88;45.58;;;;;;;;;;4991719;28;20407;-68
2021/10/10 03:00:04;;;;;;;78.10;43.63;;;;;;;;;;4990620;28;20019;-68
2021/10/10 03:02:30;;;;;;;81.55;44.00;;;;;;;;;;4990161;28;20026;-69
2021/10/10 03:04:56;;;;;;;81.00;44.95;;;;;;;;;;4991133;28;20105;-68
2021/10/10 03:07:22;;;;;;;83.43;44.08;;;;;;;;;;4989281;28;20018;-68
2021/10/10 03:09:49;;;;;;;86.28;46.97;;;;;;;;;;4989832;28;20038;-68
2021/10/10 03:12:15;;;;;;;87.55;47.67;;;;;;;;;;4991301;28;20030;-68
2021/10/10 03:14:41;;;;;;;96.05;49.75;;;;;;;;;;4989743;28;20030;-68
2021/10/10 03:17:07;;;;;;;88.00;48.03;;;;;;;;;;4989600;28;20037;-68
2021/10/10 03:19:33;;;;;;;93.20;47.17;;;;;;;;;;4994226;28;20037;-69
2021/10/10 03:21:59;;;;;;;86.47;44.15;;;;;;;;;;4992331;28;20030;-69
2021/10/10 03:24:25;;;;;;;87.47;44.22;;;;;;;;;;4990620;28;20406;-68
2021/10/10 03:26:51;;;;;;;80.85;42.50;;;;;;;;;;4989284;28;20026;-68
2021/10/10 03:29:17;;;;;;;82.22;42.50;;;;;;;;;;4989489;28;20511;-68
2021/10/10 03:31:43;;;;;;;83.10;44.90;;;;;;;;;;4991481;28;20057;-68
2021/10/10 03:34:09;;;;;;;83.20;44.15;;;;;;;;;;4991715;28;20413;-68
2021/10/10 03:36:35;;;;;;;79.30;42.63;;;;;;;;;;4989056;28;20425;-68
2021/10/10 03:39:01;;;;;;;82.20;45.15;;;;;;;;;;4989580;28;20549;-68
2021/10/10 03:41:27;;;;;;;88.68;47.47;;;;;;;;;;4990123;28;20053;-68
2021/10/10 03:43:53;;;;;;;86.68;46.70;;;;;;;;;;4991318;28;20030;-69
2021/10/10 03:46:20;;;;;;;92.97;48.45;;;;;;;;;;4985993;28;20505;-69
2021/10/10 03:48:46;;;;;;;94.47;46.50;;;;;;;;;;4990578;28;20034;-68
2021/10/10 03:51:12;;;;;;;91.38;47.05;;;;;;;;;;4988476;28;20026;-68
2021/10/10 03:56:13;;;;;;;86.90;44.47;;;;;;;;;;4990314;28;20058;-68
2021/10/10 03:58:40;;;;;;;88.93;49.00;;;;;;;;;;4992356;28;20030;-68
2021/10/10 04:01:06;;;;;;;89.25;46.35;;;;;;;;;;4991149;28;20494;-68
2021/10/10 04:03:32;;;;;;;84.40;43.50;;;;;;;;;;4989281;28;20034;-68
2021/10/10 04:05:58;;;;;;;87.53;45.05;;;;;;;;;;4989103;28;20042;-68
2021/10/10 04:08:24;;;;;;;81.50;44.65;;;;;;;;;;4988092;28;20034;-68
2021/10/10 04:10:50;;;;;;;83.82;44.13;;;;;;;;;;4989406;28;20085;-68
2021/10/10 04:13:16;;;;;;;86.20;45.60;;;;;;;;;;4990757;28;20030;-68
2021/10/10 04:15:42;;;;;;;87.25;44.55;;;;;;;;;;4988979;28;20446;-68
2021/10/10 04:18:09;;;;;;;83.63;45.40;;;;;;;;;;4988778;28;20376;-68
2021/10/10 04:20:35;;;;;;;83.63;43.58;;;;;;;;;;4990173;28;20034;-68
2021/10/10 04:23:01;;;;;;;89.82;45.13;;;;;;;;;;4999646;28;20029;-68
2021/10/10 04:25:27;;;;;;;85.93;43.97;;;;;;;;;;4989365;28;20026;-68
2021/10/10 04:27:53;;;;;;;87.78;46.33;;;;;;;;;;4988765;28;20041;-68
2021/10/10 04:30:19;;;;;;;88.45;45.35;;;;;;;;;;4989975;28;20042;-68
2021/10/10 04:32:45;;;;;;;92.75;46.60;;;;;;;;;;4987509;28;20392;-68
2021/10/10 04:35:12;;;;;;;88.68;45.00;;;;;;;;;;4987494;28;20041;-69
2021/10/10 04:37:38;;;;;;;84.57;43.67;;;;;;;;;;4989690;28;20562;-68
2021/10/10 04:40:05;;;;;;;86.72;44.95;;;;;;;;;;4988841;28;20035;-68
2021/10/10 04:42:34;;;;;;;84.55;44.25;;;;;;;;;;4990671;28;20026;-68
2021/10/10 04:45:00;;;;;;;89.60;45.30;;;;;;;;;;4988939;28;20491;-68
2021/10/10 04:47:26;;;;;;;85.40;44.97;;;;;;;;;;4990138;28;20193;-69
2021/10/10 04:49:52;;;;;;;85.07;43.67;;;;;;;;;;4999448;28;20384;-68
2021/10/10 04:52:18;;;;;;;85.70;44.17;;;;;;;;;;4997740;28;20474;-68
2021/10/10 04:54:47;;;;;;;84.60;44.50;;;;;;;;;;4994626;28;20184;-68
2021/10/10 04:57:13;;;;;;;90.03;45.72;;;;;;;;;;4989143;28;20034;-68
2021/10/10 04:59:40;;;;;;;91.90;46.00;;;;;;;;;;4993810;28;20046;-68
2021/10/10 05:02:06;;;;;;;88.82;45.47;;;;;;;;;;4992344;28;20034;-68
2021/10/10 05:04:32;;;;;;;87.35;45.33;;;;;;;;;;4994586;28;20517;-68
2021/10/10 05:06:58;;;;;;;81.25;43.83;;;;;;;;;;4989564;28;20121;-68
2021/10/10 05:09:24;;;;;;;89.13;46.60;;;;;;;;;;4992423;28;20485;-69
2021/10/10 05:11:50;;;;;;;91.13;46.95;;;;;;;;;;4990809;28;20506;-69
2021/10/10 05:14:16;;;;;;;80.15;43.70;;;;;;;;;;4991118;28;20041;-69
2021/10/10 05:16:42;;;;;;;82.88;44.65;;;;;;;;;;4992404;28;20027;-68
2021/10/10 05:19:08;;;;;;;91.95;48.05;;;;;;;;;;4990133;28;20029;-68
2021/10/10 05:21:34;;;;;;;88.22;47.20;;;;;;;;;;4993179;28;20030;-68
2021/10/10 05:24:00;;;;;;;97.55;48.85;;;;;;;;;;4996437;28;20026;-68
2021/10/10 05:26:26;;;;;;;100.22;46.22;;;;;;;;;;4991627;28;20089;-68
2021/10/10 05:28:52;;;;;;;87.32;45.58;;;;;;;;;;4989811;28;20092;-69
2021/10/10 05:31:18;;;;;;;97.63;47.53;;;;;;;;;;4993526;28;20185;-68
2021/10/10 05:33:44;;;;;;;104.38;50.92;;;;;;;;;;4993275;28;20030;-69
2021/10/10 05:36:10;;;;;;;99.38;48.80;;;;;;;;;;4991679;28;20045;-69
2021/10/10 05:38:36;;;;;;;96.22;50.13;;;;;;;;;;4989661;28;20437;-68
2021/10/10 05:41:02;;;;;;;113.28;54.75;;;;;;;;;;4993023;28;20030;-68
2021/10/10 05:43:28;;;;;;;103.93;51.22;;;;;;;;;;4991136;28;20449;-68
2021/10/10 05:45:55;;;;;;;94.55;47.65;;;;;;;;;;4990948;28;20022;-69
2021/10/10 05:48:21;;;;;;;98.43;47.83;;;;;;;;;;4990556;28;20435;-68
2021/10/10 05:50:47;;;;;;;98.28;48.08;;;;;;;;;;4998313;28;20053;-72
2021/10/10 05:53:13;;;;;;;103.70;49.88;;;;;;;;;;4997153;28;20022;-69
2021/10/10 05:55:40;;;;;;;99.55;49.28;;;;;;;;;;4996481;28;20023;-69
2021/10/10 05:58:09;;;;;;;104.43;50.40;;;;;;;;;;4991897;28;20406;-68
2021/10/10 06:00:35;;;;;;;104.47;50.67;;;;;;;;;;4992911;28;20026;-68
2021/10/10 06:03:06;;;;;;;108.20;50.58;;;;;;;;;;4989073;28;20030;-68
2021/10/10 06:05:32;;;;;;;100.70;49.17;;;;;;;;;;4995895;28;20042;-68
2021/10/10 06:07:58;;;;;;;106.57;50.83;;;;;;;;;;4992148;28;20033;-68
2021/10/10 06:10:24;;;;;;;108.43;50.90;;;;;;;;;;4990678;28;20030;-69
2021/10/10 06:12:50;;;;;;;102.65;50.33;;;;;;;;;;4989388;28;20066;-68
2021/10/10 06:15:16;;;;;;;98.97;50.00;;;;;;;;;;4993399;28;20057;-69
2021/10/10 06:17:42;;;;;;;101.25;50.03;;;;;;;;;;4990666;28;20085;-68
2021/10/10 06:20:08;;;;;;;103.90;51.40;;;;;;;;;;4987061;28;20022;-69
2021/10/10 06:22:35;;;;;;;97.03;49.10;;;;;;;;;;4991501;28;20026;-68
2021/10/10 06:25:01;;;;;;;112.05;52.97;;;;;;;;;;4985164;28;20029;-68
2021/10/10 06:27:27;;;;;;;110.47;52.38;;;;;;;;;;4991501;28;20073;-68
2021/10/10 06:29:53;;;;;;;101.07;51.33;;;;;;;;;;4992905;28;20022;-69
2021/10/10 06:32:19;;;;;;;106.00;51.28;;;;;;;;;;4995260;28;20029;-68
2021/10/10 06:34:45;;;;;;;112.30;52.33;;;;;;;;;;4995335;28;20037;-68
2021/10/10 06:37:11;;;;;;;101.13;51.30;;;;;;;;;;4994617;28;20041;-68
2021/10/10 06:39:37;;;;;;;104.05;52.22;;;;;;;;;;4992567;28;20109;-68
2021/10/10 06:42:05;;;;;;;108.25;51.38;;;;;;;;;;4996508;28;20029;-68
2021/10/10 06:44:31;;;;;;;110.93;52.38;;;;;;;;;;4988098;28;20117;-69
2021/10/10 06:46:58;;;;;;;98.80;48.47;;;;;;;;;;4991174;28;20041;-69
2021/10/10 06:49:24;;;;;;;102.30;50.42;;;;;;;;;;4988066;28;20076;-68
2021/10/10 06:51:50;;;;;;;110.75;51.53;;;;;;;;;;5002050;28;20039;-69
2021/10/10 06:54:16;;;;;;;108.18;50.67;;;;;;;;;;4993164;28;20030;-68
2021/10/10 06:56:42;;;;;;;123.25;57.50;;;;;;;;;;4990280;28;20053;-69
2021/10/10 06:59:08;;;;;;;111.15;54.92;;;;;;;;;;4984226;28;20038;-69
2021/10/10 07:01:34;;;;;;;113.30;55.08;;;;;;;;;;4999759;28;20022;-69
2021/10/10 07:04:00;;;;;;;127.07;60.53;;;;;;;;;;4998491;28;20479;-69
2021/10/10 07:06:26;;;;;;;119.35;56.97;;;;;;;;;;4990279;28;20581;-69
2021/10/10 07:08:52;;;;;;;112.80;54.55;;;;;;;;;;4998403;28;20033;-69
2021/10/10 07:11:19;;;;;;;118.97;56.70;;;;;;;;;;4989066;28;20042;-69
2021/10/10 07:13:45;;;;;;;136.50;62.03;;;;;;;;;;4989647;28;20400;-69
2021/10/10 07:16:11;;;;;;;125.70;59.88;;;;;;;;;;4994048;28;20479;-69
2021/10/10 07:18:45;;;;;;;125.32;61.28;;;;;;;;;;4988997;28;20037;-69
2021/10/10 07:27:04;;;;;;;137.63;65.35;;;;;;;;;;4949348;28;20118;-70
2021/10/10 07:29:30;;;;;;;130.07;64.28;;;;;;;;;;4948804;28;20051;-69
2021/10/10 07:31:56;;;;;;;147.70;70.85;;;;;;;;;;4973676;28;20374;-69
2021/10/10 07:34:22;;;;;;;139.50;67.70;;;;;;;;;;4990051;28;20564;-69
2021/10/10 07:36:48;;;;;;;127.10;64.63;;;;;;;;;;4987469;28;21752;-69
2021/10/10 07:39:14;;;;;;;137.13;68.82;;;;;;;;;;4990045;28;20049;-70
2021/10/10 07:41:40;;;;;;;144.10;69.07;;;;;;;;;;4989007;28;20046;-70
2021/10/10 07:44:08;;;;;;;150.85;69.20;;;;;;;;;;4989572;28;20019;-70
2021/10/10 07:46:38;;;;;;;168.07;78.75;;;;;;;;;;4989836;28;20605;-70
2021/10/10 07:49:04;;;;;;;156.82;73.25;;;;;;;;;;4988875;28;20026;-70
2021/10/10 07:51:30;;;;;;;143.95;73.50;;;;;;;;;;4988555;28;20109;-70
2021/10/10 07:53:57;;;;;;;156.48;76.70;;;;;;;;;;4988972;28;20034;-70
2021/10/10 07:56:23;;;;;;;142.90;71.25;;;;;;;;;;4988209;28;20521;-70
2021/10/10 07:58:50;;;;;;;172.73;78.15;;;;;;;;;;4989721;28;20038;-71
2021/10/10 08:01:16;;;;;;;159.25;76.22;;;;;;;;;;4989033;28;20368;-70
2021/10/10 08:03:42;;;;;;;181.90;83.22;;;;;;;;;;4989922;28;20029;-70
2021/10/10 08:06:09;;;;;;;213.38;91.55;;;;;;;;;;4988538;28;20050;-70
2021/10/10 08:08:36;;;;;;;163.30;81.80;;;;;;;;;;4988522;28;20052;-70
2021/10/10 08:11:02;;;;;;;171.82;84.70;;;;;;;;;;4988504;28;20487;-71
2021/10/10 08:13:28;;;;;;;169.50;82.43;;;;;;;;;;4991076;28;20490;-70
2021/10/10 08:15:54;;;;;;;174.73;84.90;;;;;;;;;;4988975;28;20076;-70
2021/10/10 08:18:20;;;;;;;165.93;84.13;;;;;;;;;;4987650;28;20034;-70
2021/10/10 08:20:46;;;;;;;165.75;84.30;;;;;;;;;;4989247;28;20038;-70
2021/10/10 08:23:12;;;;;;;149.63;78.72;;;;;;;;;;4990271;28;20057;-70
2021/10/10 08:25:38;;;;;;;148.82;75.22;;;;;;;;;;4988627;28;20022;-70
2021/10/10 08:28:04;;;;;;;142.82;77.30;;;;;;;;;;4991556;28;20038;-72
2021/10/10 08:30:31;;;;;;;144.40;76.05;;;;;;;;;;4991361;28;20483;-70
2021/10/10 08:32:57;;;;;;;140.88;73.97;;;;;;;;;;4991188;28;20026;-71
2021/10/10 08:35:23;;;;;;;142.30;72.10;;;;;;;;;;4993391;28;20037;-70
2021/10/10 08:37:49;;;;;;;123.10;67.57;;;;;;;;;;4991138;28;20104;-71
2021/10/10 08:40:16;;;;;;;130.10;70.65;;;;;;;;;;4996268;28;20030;-72
2021/10/10 08:42:45;;;;;;;134.02;71.75;;;;;;;;;;4994039;28;20712;-70
2021/10/10 08:45:19;;;;;;;120.20;67.80;;;;;;;;;;4992523;28;20098;-70
2021/10/10 08:47:46;;;;;;;103.88;59.28;;;;;;;;;;4992072;28;20103;-70
2021/10/10 08:50:15;;;;;;;109.95;61.33;;;;;;;;;;4990621;28;20041;-70
2021/10/10 08:52:41;;;;;;;110.88;61.50;;;;;;;;;;4991694;28;20029;-71
2021/10/10 08:55:07;;;;;;;97.72;55.42;;;;;;;;;;4993619;28;20410;-70
2021/10/10 08:57:34;;;;;;;104.40;59.75;;;;;;;;;;4992219;28;20533;-70
2021/10/10 09:00:05;;;;;;;89.55;52.65;;;;;;;;;;4989874;28;20027;-70
2021/10/10 09:02:32;;;;;;;80.78;49.85;;;;;;;;;;5002982;28;20038;-70
2021/10/10 09:04:59;;;;;;;78.65;49.63;;;;;;;;;;4993691;28;20049;-70
2021/10/10 09:07:25;;;;;;;82.75;50.70;;;;;;;;;;4990917;28;20053;-70
2021/10/10 09:09:51;;;;;;;83.13;49.25;;;;;;;;;;4987330;28;20197;-70
2021/10/10 09:12:17;;;;;;;66.72;42.25;;;;;;;;;;5000948;28;20080;-70
2021/10/10 09:14:47;;;;;;;77.25;41.00;;;;;;;;;;4990940;28;20033;-70
2021/10/10 09:17:15;;;;;;;67.75;42.30;;;;;;;;;;4989923;28;20023;-70
2021/10/10 09:19:48;;;;;;;64.25;41.47;;;;;;;;;;4983160;28;20030;-70
2021/10/10 09:22:14;;;;;;;55.90;36.85;;;;;;;;;;4989148;28;20029;-70
2021/10/10 09:24:40;;;;;;;56.28;36.50;;;;;;;;;;4998926;28;20023;-70
2021/10/10 09:27:10;;;;;;;56.08;38.33;;;;;;;;;;4990375;28;20064;-70
2021/10/10 09:29:37;;;;;;;52.25;36.10;;;;;;;;;;4984869;28;20038;-70
2021/10/10 09:32:05;;;;;;;59.35;38.28;;;;;;;;;;4993440;28;20031;-71
2021/10/10 09:34:31;;;;;;;54.78;36.28;;;;;;;;;;4994296;28;20030;-70
2021/10/10 09:37:04;;;;;;;49.13;33.80;;;;;;;;;;4988828;28;20466;-70
2021/10/10 09:39:44;;;;;;;45.08;28.60;;;;;;;;;;4986718;28;20026;-69
2021/10/10 09:42:10;;;;;;;41.30;28.38;;;;;;;;;;4989845;28;20026;-69
2021/10/10 09:44:46;;;;;;;47.38;32.00;;;;;;;;;;4986413;28;20070;-70
2021/10/10 09:47:13;;;;;;;51.00;32.63;;;;;;;;;;4988947;28;20037;-70
2021/10/10 09:49:39;;;;;;;52.97;32.60;;;;;;;;;;4989772;28;20034;-70
2021/10/10 09:52:08;;;;;;;37.20;27.92;;;;;;;;;;4990023;28;20156;-70
2021/10/10 09:54:58;;;;;;;45.47;29.50;;;;;;;;;;4985345;28;20533;-70
2021/10/10 09:57:27;;;;;;;43.78;28.13;;;;;;;;;;4983008;28;20096;-70
2021/10/10 09:59:53;;;;;;;45.50;27.65;;;;;;;;;;4985603;28;20038;-70
2021/10/10 10:02:37;;;;;;;42.13;28.92;;;;;;;;;;4990478;28;20046;-70
2021/10/10 10:05:03;;;;;;;38.17;27.10;;;;;;;;;;4987402;28;20035;-70
2021/10/10 10:07:30;;;;;;;43.65;28.05;;;;;;;;;;4990111;28;20041;-70
2021/10/10 10:09:56;;;;;;;37.13;27.17;;;;;;;;;;4983968;28;20057;-71
2021/10/10 10:12:23;;;;;;;39.40;27.52;;;;;;;;;;4990506;28;20022;-70
2021/10/10 10:14:53;;;;;;;43.25;30.20;;;;;;;;;;4987594;28;20158;-70
2021/10/10 10:17:23;;;;;;;38.83;26.98;;;;;;;;;;4989168;28;20034;-70
2021/10/10 10:19:49;;;;;;;40.67;26.95;;;;;;;;;;4985285;28;20038;-70
2021/10/10 10:22:16;;;;;;;39.60;27.45;;;;;;;;;;4986106;28;20064;-70
2021/10/10 10:24:45;;;;;;;33.83;23.80;;;;;;;;;;4988601;28;20034;-70
2021/10/10 10:27:11;;;;;;;41.33;26.33;;;;;;;;;;4988264;28;20030;-71
2021/10/10 10:29:38;;;;;;;35.60;27.02;;;;;;;;;;4986888;28;20037;-71
2021/10/10 10:32:07;;;;;;;34.25;25.35;;;;;;;;;;4990398;28;20030;-71
2021/10/10 10:34:33;;;;;;;40.50;27.05;;;;;;;;;;4986264;28;20026;-71
2021/10/10 10:37:25;;;;;;;37.67;25.73;;;;;;;;;;4989285;28;20491;-71
2021/10/10 10:39:51;;;;;;;39.95;28.45;;;;;;;;;;4964627;28;20038;-71
2021/10/10 10:42:23;;;;;;;39.70;26.52;;;;;;;;;;4990785;28;20387;-71
2021/10/10 10:44:51;;;;;;;40.88;27.45;;;;;;;;;;4991090;28;20509;-71
2021/10/10 10:47:18;;;;;;;39.60;27.90;;;;;;;;;;4988931;28;20787;-71
2021/10/10 10:49:54;;;;;;;39.00;26.80;;;;;;;;;;4986710;28;20030;-70
2021/10/10 10:52:26;;;;;;;37.80;23.95;;;;;;;;;;4985216;28;22105;-71
2021/10/10 10:54:53;;;;;;;36.72;23.33;;;;;;;;;;4989334;28;20038;-71
2021/10/10 10:57:36;;;;;;;40.15;26.48;;;;;;;;;;4988341;28;20038;-71
2021/10/10 11:00:02;;;;;;;36.45;26.15;;;;;;;;;;4984512;28;20034;-72
2021/10/10 11:02:47;;;;;;;35.28;25.27;;;;;;;;;;4990759;28;20237;-71
2021/10/10 11:05:13;;;;;;;34.35;24.17;;;;;;;;;;4987465;28;20092;-71
2021/10/10 11:07:48;;;;;;;34.47;24.02;;;;;;;;;;4990577;28;20026;-71
2021/10/10 11:10:17;;;;;;;35.22;26.80;;;;;;;;;;4984462;28;20018;-71
2021/10/10 11:12:43;;;;;;;36.50;26.50;;;;;;;;;;4985331;28;20873;-71
2021/10/10 11:15:13;;;;;;;35.88;25.08;;;;;;;;;;4987570;28;20051;-71
2021/10/10 11:17:39;;;;;;;33.15;25.77;;;;;;;;;;4988980;28;20026;-72
2021/10/10 11:20:07;;;;;;;34.97;24.90;;;;;;;;;;4983760;28;20499;-72
2021/10/10 11:22:33;;;;;;;33.92;23.55;;;;;;;;;;4987735;28;20018;-72
2021/10/10 11:24:59;;;;;;;36.25;25.98;;;;;;;;;;4991747;28;20052;-72
2021/10/10 11:27:25;;;;;;;36.17;24.13;;;;;;;;;;4989432;28;20132;-72
2021/10/10 11:29:51;;;;;;;39.78;26.35;;;;;;;;;;4982009;28;20438;-72
2021/10/10 11:32:18;;;;;;;37.17;25.85;;;;;;;;;;4988768;28;20049;-72
2021/10/10 11:34:44;;;;;;;37.22;25.92;;;;;;;;;;5004244;28;20030;-72
2021/10/10 11:37:13;;;;;;;40.97;24.80;;;;;;;;;;4984765;28;20418;-73
2021/10/10 11:39:39;;;;;;;35.83;25.30;;;;;;;;;;4983653;28;20036;-72
2021/10/10 11:42:10;;;;;;;37.75;23.67;;;;;;;;;;4981556;28;20026;-72
2021/10/10 11:44:36;;;;;;;36.30;24.90;;;;;;;;;;4970465;28;20417;-72
2021/10/10 11:47:04;;;;;;;41.67;27.58;;;;;;;;;;4968634;28;20080;-72
2021/10/10 11:49:41;;;;;;;37.42;26.73;;;;;;;;;;4969809;28;20034;-72
2021/10/10 11:52:29;;;;;;;38.05;27.95;;;;;;;;;;4972303;28;20042;-72
2021/10/10 11:55:43;;;;;;;33.92;24.48;;;;;;;;;;4991929;28;20590;-72
2021/10/10 11:57:50;;;;;;;36.35;25.27;;;;;;;;;;4980561;28;20030;-73
2021/10/10 12:00:21;;;;;;;36.00;24.63;;;;;;;;;;4983427;28;20108;-73
2021/10/10 12:02:47;;;;;;;;;;;;;;;;;;4991221;28;20399;-73
2021/10/10 12:05:17;;;;;;;34.85;24.55;;;;;;;;;;4987661;28;19928;-72
2021/10/10 12:07:47;;;;;;;35.63;24.55;;;;;;;;;;5069875;23;20050;-72
2021/10/10 12:10:18;;;;;;;31.90;23.98;;;;;;;;;;4956600;28;20038;-73
2021/10/10 12:12:44;;;;;;;36.80;26.30;;;;;;;;;;4963456;28;20031;-72
2021/10/10 12:15:11;;;;;;;36.45;25.23;;;;;;;;;;4960228;28;20277;-73
2021/10/10 12:17:43;;;;;;;33.20;24.95;;;;;;;;;;4964070;28;20446;-73
2021/10/10 12:20:18;;;;;;;36.88;25.38;;;;;;;;;;4951419;28;20030;-72
2021/10/10 12:22:45;;;;;;;43.75;25.08;;;;;;;;;;4969734;28;20027;-73
2021/10/10 12:25:20;;;;;;;39.30;24.92;;;;;;;;;;4968189;28;20079;-72
2021/10/10 12:27:54;;;;;;;34.38;24.88;;;;;;;;;;4970741;28;20035;-73
2021/10/10 12:30:25;;;;;;;36.03;25.33;;;;;;;;;;4977786;28;20019;-72
2021/10/10 12:32:51;;;;;;;36.72;25.23;;;;;;;;;;4967162;28;20030;-73
2021/10/10 12:35:17;;;;;;;34.10;25.30;;;;;;;;;;4972577;28;20027;-72
2021/10/10 12:37:54;;;;;;;34.55;24.88;;;;;;;;;;4962897;28;20082;-74
2021/10/10 12:40:38;;;;;;;35.65;24.08;;;;;;;;;;4967738;28;20070;-74
2021/10/10 12:43:04;;;;;;;37.20;25.10;;;;;;;;;;4956406;28;20030;-74
2021/10/10 12:45:31;;;;;;;33.53;24.67;;;;;;;;;;4966733;28;20528;-74
2021/10/10 12:48:09;;;;;;;34.58;24.70;;;;;;;;;;4956995;28;20086;-74
2021/10/10 12:50:47;;;;;;;32.38;23.85;;;;;;;;;;4965712;28;20456;-74
2021/10/10 12:53:33;;;;;;;36.05;25.02;;;;;;;;;;4960880;28;20101;-73
2021/10/10 12:56:18;;;;;;;34.58;25.70;;;;;;;;;;4963074;28;20039;-73
2021/10/10 12:58:51;;;;;;;36.28;24.63;;;;;;;;;;4956398;28;20081;-74
2021/10/10 13:01:17;;;;;;;32.67;24.38;;;;;;;;;;4969745;28;20019;-74
2021/10/10 13:03:43;;;;;;;31.80;24.67;;;;;;;;;;4970331;28;20042;-74
2021/10/10 13:06:10;;;;;;;35.65;24.50;;;;;;;;;;4983224;28;20405;-74
2021/10/10 13:09:02;;;;;;;32.78;23.77;;;;;;;;;;4965109;28;20058;-74
2021/10/10 13:11:29;;;;;;;36.80;25.50;;;;;;;;;;4965539;28;20094;-74
2021/10/10 13:13:55;;;;;;;40.20;27.70;;;;;;;;;;4968362;28;20027;-74
2021/10/10 13:16:22;;;;;;;35.33;24.58;;;;;;;;;;4965383;28;20050;-74
2021/10/10 13:18:48;;;;;;;31.27;24.67;;;;;;;;;;4968118;28;20030;-76
2021/10/10 13:21:14;;;;;;;37.22;25.33;;;;;;;;;;4964261;28;20374;-73
2021/10/10 13:23:40;;;;;;;36.50;26.38;;;;;;;;;;4966376;28;20037;-74
2021/10/10 13:26:07;;;;;;;34.13;24.13;;;;;;;;;;4969941;28;20046;-75
2021/10/10 13:28:33;;;;;;;34.28;23.98;;;;;;;;;;4964082;28;20521;-74
2021/10/10 13:31:02;;;;;;;38.97;26.67;;;;;;;;;;4971673;28;20034;-74
2021/10/10 13:33:28;;;;;;;37.40;26.42;;;;;;;;;;4964476;28;20029;-74
2021/10/10 13:35:55;;;;;;;38.05;24.95;;;;;;;;;;4964651;28;20031;-75
2021/10/10 13:38:24;;;;;;;37.78;25.50;;;;;;;;;;4977607;28;20055;-74
2021/10/10 13:40:51;;;;;;;37.97;26.20;;;;;;;;;;4983053;28;20397;-75
2021/10/10 13:43:17;;;;;;;34.50;25.92;;;;;;;;;;4973237;28;20101;-75
2021/10/10 13:45:43;;;;;;;38.03;26.05;;;;;;;;;;4964804;28;20421;-75
2021/10/10 13:48:10;;;;;;;39.50;26.98;;;;;;;;;;4966218;28;20033;-75
2021/10/10 13:50:36;;;;;;;36.35;26.48;;;;;;;;;;4970271;28;20042;-75
2021/10/10 13:53:03;;;;;;;36.35;25.85;;;;;;;;;;4968430;28;20030;-74
2021/10/10 13:55:29;;;;;;;35.33;25.80;;;;;;;;;;4967573;28;20508;-74
2021/10/10 13:57:55;;;;;;;37.55;26.95;;;;;;;;;;4962178;28;20041;-74
2021/10/10 14:00:21;;;;;;;33.10;25.98;;;;;;;;;;4981041;28;20015;-74
2021/10/10 14:02:47;;;;;;;38.78;27.38;;;;;;;;;;4960981;28;20039;-74
2021/10/10 14:05:13;;;;;;;36.20;25.55;;;;;;;;;;4969350;28;20045;-75
2021/10/10 14:07:39;;;;;;;37.20;26.95;;;;;;;;;;4963811;28;20053;-74
2021/10/10 14:10:07;;;;;;;34.97;25.75;;;;;;;;;;4957559;28;20077;-75
2021/10/10 14:12:33;;;;;;;35.45;27.17;;;;;;;;;;4967708;28;20397;-75
2021/10/10 14:15:00;;;;;;;36.28;25.77;;;;;;;;;;4963784;28;20122;-76
2021/10/10 14:17:27;;;;;;;38.58;28.75;;;;;;;;;;4973368;28;20037;-75
2021/10/10 14:19:53;;;;;;;40.60;27.08;;;;;;;;;;4959386;28;20034;-75
2021/10/10 14:22:21;;;;;;;40.25;26.40;;;;;;;;;;4978251;28;20035;-75
2021/10/10 14:24:47;;;;;;;43.75;29.45;;;;;;;;;;4968751;28;20536;-74
2021/10/10 14:27:13;;;;;;;37.25;26.75;;;;;;;;;;4962293;28;20139;-75